sensor_id;sensor_type;location;lat;lon;timestamp;P1;durP1;ratioP1;P2;durP2;ratioP2
83728;SDS011;73707;56.480;-2.840;2024-03-08T00:01:09;6.78;;;3.85;;
83728;SDS011;73707;56.480;-2.840;2024-03-08T00:03:35;5.97;;;4.00;;
83728;SDS011;73707;56.480;-2.840;2024-03-08T00:06:01;8.35;;;4.28;;
83728;SDS011;73707;56.480;-2.840;2024-03-08T00:08:27;6.35;;;4.25;;
83728;SDS011;73707;56.480;-2.840;2024-03-08T00:10:53;11.17;;;4.10;;
83728;SDS011;73707;56.480;-2.840;2024-03-08T00:13:19;6.45;;;4.30;;
83728;SDS011;73707;56.480;-2.840;2024-03-08T00:15:44;10.40;;;3.42;;
83728;SDS011;73707;56.480;-2.840;2024-03-08T00:18:10;6.57;;;4.23;;
83728;SDS011;73707;56.480;-2.840;2024-03-08T00:20:36;7.88;;;4.13;;
83728;SDS011;73707;56.480;-2.840;2024-03-08T00:23:02;5.82;;;3.95;;
83728;SDS011;73707;56.480;-2.840;2024-03-08T00:25:28;6.87;;;3.97;;
83728;SDS011;73707;56.480;-2.840;2024-03-08T00:27:53;7.95;;;4.85;;
83728;SDS011;73707;56.480;-2.840;2024-03-08T00:30:22;6.60;;;4.03;;
83728;SDS011;73707;56.480;-2.840;2024-03-08T00:32:48;6.53;;;4.50;;
83728;SDS011;73707;56.480;-2.840;2024-03-08T00:35:14;10.57;;;5.15;;
83728;SDS011;73707;56.480;-2.840;2024-03-08T00:37:40;10.20;;;4.82;;
83728;SDS011;73707;56.480;-2.840;2024-03-08T00:40:12;10.90;;;5.38;;
83728;SDS011;73707;56.480;-2.840;2024-03-08T00:42:38;11.23;;;6.00;;
83728;SDS011;73707;56.480;-2.840;2024-03-08T00:45:05;12.38;;;4.82;;
83728;SDS011;73707;56.480;-2.840;2024-03-08T00:47:30;9.27;;;4.73;;
83728;SDS011;73707;56.480;-2.840;2024-03-08T00:49:57;9.65;;;5.03;;
83728;SDS011;73707;56.480;-2.840;2024-03-08T00:52:22;12.95;;;5.53;;
83728;SDS011;73707;56.480;-2.840;2024-03-08T00:54:51;7.93;;;4.53;;
83728;SDS011;73707;56.480;-2.840;2024-03-08T00:57:17;6.40;;;4.25;;
83728;SDS011;73707;56.480;-2.840;2024-03-08T00:59:43;7.27;;;4.90;;
83728;SDS011;73707;56.480;-2.840;2024-03-08T01:02:08;9.73;;;4.50;;
83728;SDS011;73707;56.480;-2.840;2024-03-08T01:04:34;9.63;;;4.88;;
83728;SDS011;73707;56.480;-2.840;2024-03-08T01:07:00;9.47;;;5.70;;
83728;SDS011;73707;56.480;-2.840;2024-03-08T01:09:26;10.15;;;4.75;;
83728;SDS011;73707;56.480;-2.840;2024-03-08T01:11:55;8.77;;;4.93;;
83728;SDS011;73707;56.480;-2.840;2024-03-08T01:14:21;10.17;;;5.20;;
83728;SDS011;73707;56.480;-2.840;2024-03-08T01:16:48;10.43;;;5.32;;
83728;SDS011;73707;56.480;-2.840;2024-03-08T01:19:14;12.13;;;5.80;;
83728;SDS011;73707;56.480;-2.840;2024-03-08T01:21:40;8.45;;;4.63;;
83728;SDS011;73707;56.480;-2.840;2024-03-08T01:24:07;12.32;;;5.28;;
83728;SDS011;73707;56.480;-2.840;2024-03-08T01:26:32;11.80;;;4.95;;
83728;SDS011;73707;56.480;-2.840;2024-03-08T01:29:01;9.43;;;4.67;;
83728;SDS011;73707;56.480;-2.840;2024-03-08T01:31:31;9.43;;;4.78;;
83728;SDS011;73707;56.480;-2.840;2024-03-08T01:33:57;14.80;;;5.72;;
83728;SDS011;73707;56.480;-2.840;2024-03-08T01:36:23;18.02;;;5.40;;
83728;SDS011;73707;56.480;-2.840;2024-03-08T01:38:49;9.10;;;4.78;;
83728;SDS011;73707;56.480;-2.840;2024-03-08T01:41:15;9.77;;;5.97;;
83728;SDS011;73707;56.480;-2.840;2024-03-08T01:43:42;9.68;;;4.95;;
83728;SDS011;73707;56.480;-2.840;2024-03-08T01:46:09;8.98;;;5.22;;
83728;SDS011;73707;56.480;-2.840;2024-03-08T01:48:36;9.80;;;5.10;;
83728;SDS011;73707;56.480;-2.840;2024-03-08T01:51:02;9.68;;;5.15;;
83728;SDS011;73707;56.480;-2.840;2024-03-08T01:53:29;10.05;;;5.05;;
83728;SDS011;73707;56.480;-2.840;2024-03-08T01:55:56;8.90;;;5.32;;
83728;SDS011;73707;56.480;-2.840;2024-03-08T01:58:23;10.73;;;5.20;;
83728;SDS011;73707;56.480;-2.840;2024-03-08T02:00:49;7.40;;;4.70;;
83728;SDS011;73707;56.480;-2.840;2024-03-08T02:03:15;13.25;;;5.00;;
83728;SDS011;73707;56.480;-2.840;2024-03-08T02:05:42;7.22;;;4.50;;
83728;SDS011;73707;56.480;-2.840;2024-03-08T02:08:08;7.63;;;4.27;;
83728;SDS011;73707;56.480;-2.840;2024-03-08T02:10:38;8.60;;;4.13;;
83728;SDS011;73707;56.480;-2.840;2024-03-08T02:13:04;7.97;;;4.53;;
83728;SDS011;73707;56.480;-2.840;2024-03-08T02:18:25;8.20;;;4.60;;
83728;SDS011;73707;56.480;-2.840;2024-03-08T02:21:02;6.13;;;4.57;;
83728;SDS011;73707;56.480;-2.840;2024-03-08T02:23:28;9.48;;;3.92;;
83728;SDS011;73707;56.480;-2.840;2024-03-08T02:25:55;7.30;;;4.40;;
83728;SDS011;73707;56.480;-2.840;2024-03-08T02:28:22;9.80;;;3.83;;
83728;SDS011;73707;56.480;-2.840;2024-03-08T02:30:50;16.33;;;4.70;;
83728;SDS011;73707;56.480;-2.840;2024-03-08T02:33:16;6.90;;;4.28;;
83728;SDS011;73707;56.480;-2.840;2024-03-08T02:35:46;7.47;;;4.18;;
83728;SDS011;73707;56.480;-2.840;2024-03-08T02:38:13;6.63;;;4.65;;
83728;SDS011;73707;56.480;-2.840;2024-03-08T02:40:49;10.13;;;4.47;;
83728;SDS011;73707;56.480;-2.840;2024-03-08T02:43:17;11.32;;;4.50;;
83728;SDS011;73707;56.480;-2.840;2024-03-08T02:45:43;7.95;;;4.45;;
83728;SDS011;73707;56.480;-2.840;2024-03-08T02:48:10;10.57;;;5.57;;
83728;SDS011;73707;56.480;-2.840;2024-03-08T02:50:37;9.05;;;4.50;;
83728;SDS011;73707;56.480;-2.840;2024-03-08T02:53:04;10.43;;;4.50;;
83728;SDS011;73707;56.480;-2.840;2024-03-08T02:55:30;13.63;;;4.97;;
83728;SDS011;73707;56.480;-2.840;2024-03-08T02:57:58;9.05;;;4.93;;
83728;SDS011;73707;56.480;-2.840;2024-03-08T03:00:24;11.45;;;4.80;;
83728;SDS011;73707;56.480;-2.840;2024-03-08T03:02:50;10.05;;;5.22;;
83728;SDS011;73707;56.480;-2.840;2024-03-08T03:05:19;16.92;;;5.78;;
83728;SDS011;73707;56.480;-2.840;2024-03-08T03:07:48;9.85;;;4.80;;
83728;SDS011;73707;56.480;-2.840;2024-03-08T03:10:15;16.25;;;5.32;;
83728;SDS011;73707;56.480;-2.840;2024-03-08T03:12:42;15.20;;;5.65;;
83728;SDS011;73707;56.480;-2.840;2024-03-08T03:15:08;12.43;;;5.32;;
83728;SDS011;73707;56.480;-2.840;2024-03-08T03:17:35;10.75;;;4.90;;
83728;SDS011;73707;56.480;-2.840;2024-03-08T03:20:01;11.90;;;5.00;;
83728;SDS011;73707;56.480;-2.840;2024-03-08T03:22:34;10.45;;;5.03;;
83728;SDS011;73707;56.480;-2.840;2024-03-08T03:25:00;12.17;;;3.90;;
83728;SDS011;73707;56.480;-2.840;2024-03-08T03:27:25;9.93;;;4.30;;
83728;SDS011;73707;56.480;-2.840;2024-03-08T03:29:51;10.87;;;4.27;;
83728;SDS011;73707;56.480;-2.840;2024-03-08T03:32:17;10.15;;;4.43;;
83728;SDS011;73707;56.480;-2.840;2024-03-08T03:34:43;11.67;;;4.40;;
83728;SDS011;73707;56.480;-2.840;2024-03-08T03:37:09;8.90;;;4.65;;
83728;SDS011;73707;56.480;-2.840;2024-03-08T03:39:39;9.07;;;4.22;;
83728;SDS011;73707;56.480;-2.840;2024-03-08T03:42:14;9.02;;;4.20;;
83728;SDS011;73707;56.480;-2.840;2024-03-08T03:44:41;7.43;;;4.13;;
83728;SDS011;73707;56.480;-2.840;2024-03-08T03:47:11;10.07;;;4.18;;
83728;SDS011;73707;56.480;-2.840;2024-03-08T03:49:36;10.23;;;4.53;;
83728;SDS011;73707;56.480;-2.840;2024-03-08T03:52:02;8.88;;;4.78;;
83728;SDS011;73707;56.480;-2.840;2024-03-08T03:54:29;15.35;;;4.57;;
83728;SDS011;73707;56.480;-2.840;2024-03-08T03:56:55;7.00;;;4.55;;
83728;SDS011;73707;56.480;-2.840;2024-03-08T03:59:21;7.57;;;4.10;;
83728;SDS011;73707;56.480;-2.840;2024-03-08T04:01:47;6.45;;;4.07;;
83728;SDS011;73707;56.480;-2.840;2024-03-08T04:04:14;6.25;;;4.40;;
83728;SDS011;73707;56.480;-2.840;2024-03-08T04:06:40;13.63;;;5.53;;
83728;SDS011;73707;56.480;-2.840;2024-03-08T04:09:06;9.80;;;4.40;;
83728;SDS011;73707;56.480;-2.840;2024-03-08T04:11:32;19.90;;;4.82;;
83728;SDS011;73707;56.480;-2.840;2024-03-08T04:13:58;10.50;;;4.00;;
83728;SDS011;73707;56.480;-2.840;2024-03-08T04:16:24;8.95;;;4.68;;
83728;SDS011;73707;56.480;-2.840;2024-03-08T04:18:51;7.50;;;4.40;;
83728;SDS011;73707;56.480;-2.840;2024-03-08T04:21:17;11.73;;;4.23;;
83728;SDS011;73707;56.480;-2.840;2024-03-08T04:23:44;9.18;;;4.63;;
83728;SDS011;73707;56.480;-2.840;2024-03-08T04:26:10;8.27;;;4.17;;
83728;SDS011;73707;56.480;-2.840;2024-03-08T04:28:36;6.90;;;3.53;;
83728;SDS011;73707;56.480;-2.840;2024-03-08T04:31:03;9.20;;;3.75;;
83728;SDS011;73707;56.480;-2.840;2024-03-08T04:33:29;6.57;;;3.30;;
83728;SDS011;73707;56.480;-2.840;2024-03-08T04:35:54;7.70;;;3.37;;
83728;SDS011;73707;56.480;-2.840;2024-03-08T04:38:20;14.73;;;3.65;;
83728;SDS011;73707;56.480;-2.840;2024-03-08T04:40:47;7.57;;;4.28;;
83728;SDS011;73707;56.480;-2.840;2024-03-08T04:43:14;5.10;;;3.38;;
83728;SDS011;73707;56.480;-2.840;2024-03-08T04:45:39;12.20;;;4.13;;
83728;SDS011;73707;56.480;-2.840;2024-03-08T04:48:08;7.35;;;3.45;;
83728;SDS011;73707;56.480;-2.840;2024-03-08T04:50:34;7.15;;;3.25;;
83728;SDS011;73707;56.480;-2.840;2024-03-08T04:53:00;5.90;;;2.87;;
83728;SDS011;73707;56.480;-2.840;2024-03-08T04:55:26;9.60;;;3.78;;
83728;SDS011;73707;56.480;-2.840;2024-03-08T04:57:51;5.67;;;3.20;;
83728;SDS011;73707;56.480;-2.840;2024-03-08T05:00:18;8.80;;;3.77;;
83728;SDS011;73707;56.480;-2.840;2024-03-08T05:02:44;7.25;;;3.00;;
83728;SDS011;73707;56.480;-2.840;2024-03-08T05:05:10;11.02;;;3.20;;
83728;SDS011;73707;56.480;-2.840;2024-03-08T05:07:39;6.45;;;3.35;;
83728;SDS011;73707;56.480;-2.840;2024-03-08T05:10:05;5.93;;;3.45;;
83728;SDS011;73707;56.480;-2.840;2024-03-08T05:12:32;8.73;;;3.53;;
83728;SDS011;73707;56.480;-2.840;2024-03-08T05:14:58;4.03;;;2.63;;
83728;SDS011;73707;56.480;-2.840;2024-03-08T05:17:23;5.45;;;2.85;;
83728;SDS011;73707;56.480;-2.840;2024-03-08T05:19:49;6.28;;;2.72;;
83728;SDS011;73707;56.480;-2.840;2024-03-08T05:22:16;7.65;;;2.95;;
83728;SDS011;73707;56.480;-2.840;2024-03-08T05:24:42;6.95;;;3.33;;
83728;SDS011;73707;56.480;-2.840;2024-03-08T05:27:08;8.60;;;3.72;;
83728;SDS011;73707;56.480;-2.840;2024-03-08T05:29:34;5.60;;;3.13;;
83728;SDS011;73707;56.480;-2.840;2024-03-08T05:31:59;8.15;;;3.17;;
83728;SDS011;73707;56.480;-2.840;2024-03-08T05:34:26;9.32;;;3.28;;
83728;SDS011;73707;56.480;-2.840;2024-03-08T05:36:53;4.17;;;2.70;;
83728;SDS011;73707;56.480;-2.840;2024-03-08T05:39:19;8.48;;;3.30;;
83728;SDS011;73707;56.480;-2.840;2024-03-08T05:41:45;4.70;;;2.67;;
83728;SDS011;73707;56.480;-2.840;2024-03-08T05:44:11;7.00;;;3.33;;
83728;SDS011;73707;56.480;-2.840;2024-03-08T05:46:38;10.25;;;3.55;;
83728;SDS011;73707;56.480;-2.840;2024-03-08T05:49:04;9.07;;;3.75;;
83728;SDS011;73707;56.480;-2.840;2024-03-08T05:51:34;6.13;;;3.55;;
83728;SDS011;73707;56.480;-2.840;2024-03-08T05:54:01;11.35;;;4.03;;
83728;SDS011;73707;56.480;-2.840;2024-03-08T05:56:33;10.38;;;3.97;;
83728;SDS011;73707;56.480;-2.840;2024-03-08T05:58:59;12.55;;;3.42;;
83728;SDS011;73707;56.480;-2.840;2024-03-08T06:01:25;9.07;;;3.47;;
83728;SDS011;73707;56.480;-2.840;2024-03-08T06:03:52;7.85;;;3.47;;
83728;SDS011;73707;56.480;-2.840;2024-03-08T06:06:20;9.27;;;3.42;;
83728;SDS011;73707;56.480;-2.840;2024-03-08T06:08:47;8.15;;;3.70;;
83728;SDS011;73707;56.480;-2.840;2024-03-08T06:11:14;10.00;;;4.35;;
83728;SDS011;73707;56.480;-2.840;2024-03-08T06:13:40;6.60;;;3.50;;
83728;SDS011;73707;56.480;-2.840;2024-03-08T06:16:06;15.95;;;4.28;;
83728;SDS011;73707;56.480;-2.840;2024-03-08T06:18:33;6.70;;;3.38;;
83728;SDS011;73707;56.480;-2.840;2024-03-08T06:21:02;8.63;;;3.60;;
83728;SDS011;73707;56.480;-2.840;2024-03-08T06:23:34;9.60;;;3.90;;
83728;SDS011;73707;56.480;-2.840;2024-03-08T06:26:09;7.28;;;3.40;;
83728;SDS011;73707;56.480;-2.840;2024-03-08T06:28:34;8.75;;;3.40;;
83728;SDS011;73707;56.480;-2.840;2024-03-08T06:31:00;13.57;;;3.83;;
83728;SDS011;73707;56.480;-2.840;2024-03-08T06:33:27;10.05;;;4.18;;
83728;SDS011;73707;56.480;-2.840;2024-03-08T06:35:54;13.07;;;4.25;;
83728;SDS011;73707;56.480;-2.840;2024-03-08T06:38:22;10.95;;;4.47;;
83728;SDS011;73707;56.480;-2.840;2024-03-08T06:40:51;7.32;;;4.13;;
83728;SDS011;73707;56.480;-2.840;2024-03-08T06:43:17;9.15;;;3.92;;
83728;SDS011;73707;56.480;-2.840;2024-03-08T06:45:44;7.65;;;3.83;;
83728;SDS011;73707;56.480;-2.840;2024-03-08T06:48:17;9.05;;;4.20;;
83728;SDS011;73707;56.480;-2.840;2024-03-08T06:50:44;11.30;;;4.32;;
83728;SDS011;73707;56.480;-2.840;2024-03-08T06:53:10;11.82;;;4.63;;
83728;SDS011;73707;56.480;-2.840;2024-03-08T06:55:39;7.90;;;3.67;;
83728;SDS011;73707;56.480;-2.840;2024-03-08T06:58:05;6.55;;;3.65;;
83728;SDS011;73707;56.480;-2.840;2024-03-08T07:00:35;10.73;;;3.45;;
83728;SDS011;73707;56.480;-2.840;2024-03-08T07:03:01;6.40;;;3.17;;
83728;SDS011;73707;56.480;-2.840;2024-03-08T07:05:30;12.02;;;4.40;;
83728;SDS011;73707;56.480;-2.840;2024-03-08T07:07:57;5.03;;;3.10;;
83728;SDS011;73707;56.480;-2.840;2024-03-08T07:10:23;5.38;;;3.30;;
83728;SDS011;73707;56.480;-2.840;2024-03-08T07:12:53;9.45;;;4.05;;
83728;SDS011;73707;56.480;-2.840;2024-03-08T07:15:19;12.73;;;4.43;;
83728;SDS011;73707;56.480;-2.840;2024-03-08T07:17:45;14.20;;;4.13;;
83728;SDS011;73707;56.480;-2.840;2024-03-08T07:20:12;9.75;;;3.90;;
83728;SDS011;73707;56.480;-2.840;2024-03-08T07:22:39;8.77;;;3.40;;
83728;SDS011;73707;56.480;-2.840;2024-03-08T07:25:05;8.67;;;3.40;;
83728;SDS011;73707;56.480;-2.840;2024-03-08T07:27:50;5.13;;;3.53;;
83728;SDS011;73707;56.480;-2.840;2024-03-08T07:30:16;11.23;;;4.35;;
83728;SDS011;73707;56.480;-2.840;2024-03-08T07:33:03;8.27;;;3.63;;
83728;SDS011;73707;56.480;-2.840;2024-03-08T07:35:29;9.18;;;3.92;;
83728;SDS011;73707;56.480;-2.840;2024-03-08T07:37:56;14.85;;;3.60;;
83728;SDS011;73707;56.480;-2.840;2024-03-08T07:40:22;12.47;;;3.83;;
83728;SDS011;73707;56.480;-2.840;2024-03-08T07:42:48;6.85;;;3.42;;
83728;SDS011;73707;56.480;-2.840;2024-03-08T07:45:17;9.88;;;4.00;;
83728;SDS011;73707;56.480;-2.840;2024-03-08T07:47:43;9.93;;;3.75;;
83728;SDS011;73707;56.480;-2.840;2024-03-08T07:50:09;10.75;;;3.92;;
83728;SDS011;73707;56.480;-2.840;2024-03-08T07:52:35;14.20;;;3.90;;
83728;SDS011;73707;56.480;-2.840;2024-03-08T07:55:01;8.88;;;3.60;;
83728;SDS011;73707;56.480;-2.840;2024-03-08T07:57:28;8.25;;;3.22;;
83728;SDS011;73707;56.480;-2.840;2024-03-08T07:59:54;6.43;;;3.08;;
83728;SDS011;73707;56.480;-2.840;2024-03-08T08:02:20;10.48;;;3.08;;
83728;SDS011;73707;56.480;-2.840;2024-03-08T08:04:46;6.27;;;3.60;;
83728;SDS011;73707;56.480;-2.840;2024-03-08T08:07:12;7.25;;;3.25;;
83728;SDS011;73707;56.480;-2.840;2024-03-08T08:09:39;7.70;;;3.63;;
83728;SDS011;73707;56.480;-2.840;2024-03-08T08:12:07;8.90;;;3.83;;
83728;SDS011;73707;56.480;-2.840;2024-03-08T08:14:37;9.25;;;3.25;;
83728;SDS011;73707;56.480;-2.840;2024-03-08T08:17:03;6.35;;;3.47;;
83728;SDS011;73707;56.480;-2.840;2024-03-08T08:19:29;8.43;;;3.65;;
83728;SDS011;73707;56.480;-2.840;2024-03-08T08:21:55;9.25;;;3.28;;
83728;SDS011;73707;56.480;-2.840;2024-03-08T08:24:20;6.70;;;3.13;;
83728;SDS011;73707;56.480;-2.840;2024-03-08T08:26:47;7.05;;;2.83;;
83728;SDS011;73707;56.480;-2.840;2024-03-08T08:29:12;5.40;;;2.83;;
83728;SDS011;73707;56.480;-2.840;2024-03-08T08:31:38;10.02;;;3.17;;
83728;SDS011;73707;56.480;-2.840;2024-03-08T08:34:04;9.30;;;3.23;;
83728;SDS011;73707;56.480;-2.840;2024-03-08T08:36:31;7.05;;;2.83;;
83728;SDS011;73707;56.480;-2.840;2024-03-08T08:38:57;5.70;;;2.85;;
83728;SDS011;73707;56.480;-2.840;2024-03-08T08:41:24;4.05;;;2.30;;
83728;SDS011;73707;56.480;-2.840;2024-03-08T08:43:50;7.90;;;2.73;;
83728;SDS011;73707;56.480;-2.840;2024-03-08T08:46:19;7.93;;;2.90;;
83728;SDS011;73707;56.480;-2.840;2024-03-08T08:48:46;5.43;;;2.17;;
83728;SDS011;73707;56.480;-2.840;2024-03-08T08:51:12;8.82;;;2.42;;
83728;SDS011;73707;56.480;-2.840;2024-03-08T08:53:38;11.55;;;2.90;;
83728;SDS011;73707;56.480;-2.840;2024-03-08T08:56:07;3.38;;;2.25;;
83728;SDS011;73707;56.480;-2.840;2024-03-08T08:58:39;10.02;;;2.83;;
83728;SDS011;73707;56.480;-2.840;2024-03-08T09:01:08;6.30;;;2.65;;
83728;SDS011;73707;56.480;-2.840;2024-03-08T09:03:37;4.20;;;2.40;;
83728;SDS011;73707;56.480;-2.840;2024-03-08T09:06:05;4.93;;;2.63;;
83728;SDS011;73707;56.480;-2.840;2024-03-08T09:08:37;5.47;;;2.50;;
83728;SDS011;73707;56.480;-2.840;2024-03-08T09:11:05;7.85;;;2.85;;
83728;SDS011;73707;56.480;-2.840;2024-03-08T09:13:32;5.67;;;3.00;;
83728;SDS011;73707;56.480;-2.840;2024-03-08T09:15:59;6.95;;;3.00;;
83728;SDS011;73707;56.480;-2.840;2024-03-08T09:18:25;4.63;;;2.83;;
83728;SDS011;73707;56.480;-2.840;2024-03-08T09:20:51;2.78;;;1.90;;
83728;SDS011;73707;56.480;-2.840;2024-03-08T09:23:21;9.63;;;3.50;;
83728;SDS011;73707;56.480;-2.840;2024-03-08T09:25:47;4.22;;;2.60;;
83728;SDS011;73707;56.480;-2.840;2024-03-08T09:28:13;5.63;;;3.17;;
83728;SDS011;73707;56.480;-2.840;2024-03-08T09:30:39;6.78;;;3.00;;
83728;SDS011;73707;56.480;-2.840;2024-03-08T09:33:05;8.83;;;3.30;;
83728;SDS011;73707;56.480;-2.840;2024-03-08T09:35:31;3.08;;;2.30;;
83728;SDS011;73707;56.480;-2.840;2024-03-08T09:37:57;3.78;;;2.72;;
83728;SDS011;73707;56.480;-2.840;2024-03-08T09:40:23;7.13;;;2.90;;
83728;SDS011;73707;56.480;-2.840;2024-03-08T09:42:50;4.25;;;2.13;;
83728;SDS011;73707;56.480;-2.840;2024-03-08T09:45:17;5.70;;;2.15;;
83728;SDS011;73707;56.480;-2.840;2024-03-08T09:47:47;4.85;;;2.67;;
83728;SDS011;73707;56.480;-2.840;2024-03-08T09:50:14;3.28;;;2.22;;
83728;SDS011;73707;56.480;-2.840;2024-03-08T09:52:46;3.47;;;1.83;;
83728;SDS011;73707;56.480;-2.840;2024-03-08T09:55:13;4.25;;;2.33;;
83728;SDS011;73707;56.480;-2.840;2024-03-08T09:57:42;4.97;;;2.88;;
83728;SDS011;73707;56.480;-2.840;2024-03-08T10:00:27;7.70;;;2.92;;
83728;SDS011;73707;56.480;-2.840;2024-03-08T10:02:53;7.03;;;3.10;;
83728;SDS011;73707;56.480;-2.840;2024-03-08T10:05:18;3.38;;;2.47;;
83728;SDS011;73707;56.480;-2.840;2024-03-08T10:07:45;8.68;;;3.60;;
83728;SDS011;73707;56.480;-2.840;2024-03-08T10:10:11;7.63;;;3.85;;
83728;SDS011;73707;56.480;-2.840;2024-03-08T10:12:37;5.80;;;3.90;;
83728;SDS011;73707;56.480;-2.840;2024-03-08T10:15:06;8.13;;;3.80;;
83728;SDS011;73707;56.480;-2.840;2024-03-08T10:17:34;8.75;;;4.90;;
83728;SDS011;73707;56.480;-2.840;2024-03-08T10:20:00;7.75;;;3.88;;
83728;SDS011;73707;56.480;-2.840;2024-03-08T10:22:26;6.60;;;4.30;;
83728;SDS011;73707;56.480;-2.840;2024-03-08T10:24:51;11.97;;;4.80;;
83728;SDS011;73707;56.480;-2.840;2024-03-08T10:27:17;11.60;;;4.50;;
83728;SDS011;73707;56.480;-2.840;2024-03-08T10:29:46;7.05;;;4.78;;
83728;SDS011;73707;56.480;-2.840;2024-03-08T10:32:13;10.35;;;4.68;;
83728;SDS011;73707;56.480;-2.840;2024-03-08T10:34:38;6.45;;;4.60;;
83728;SDS011;73707;56.480;-2.840;2024-03-08T10:37:06;9.00;;;4.47;;
83728;SDS011;73707;56.480;-2.840;2024-03-08T10:39:37;12.60;;;5.13;;
83728;SDS011;73707;56.480;-2.840;2024-03-08T10:42:09;11.55;;;5.78;;
83728;SDS011;73707;56.480;-2.840;2024-03-08T10:44:51;9.38;;;5.70;;
83728;SDS011;73707;56.480;-2.840;2024-03-08T10:47:29;18.42;;;6.97;;
83728;SDS011;73707;56.480;-2.840;2024-03-08T10:50:04;11.15;;;6.32;;
83728;SDS011;73707;56.480;-2.840;2024-03-08T10:52:33;14.73;;;6.50;;
83728;SDS011;73707;56.480;-2.840;2024-03-08T10:55:00;13.95;;;7.03;;
83728;SDS011;73707;56.480;-2.840;2024-03-08T10:57:27;14.73;;;6.90;;
83728;SDS011;73707;56.480;-2.840;2024-03-08T10:59:53;15.00;;;6.57;;
83728;SDS011;73707;56.480;-2.840;2024-03-08T11:02:20;17.70;;;8.43;;
83728;SDS011;73707;56.480;-2.840;2024-03-08T11:04:49;16.52;;;8.60;;
83728;SDS011;73707;56.480;-2.840;2024-03-08T11:07:16;17.30;;;8.60;;
83728;SDS011;73707;56.480;-2.840;2024-03-08T11:09:43;16.83;;;8.70;;
83728;SDS011;73707;56.480;-2.840;2024-03-08T11:14:54;17.48;;;8.93;;
83728;SDS011;73707;56.480;-2.840;2024-03-08T11:19:57;21.30;;;10.18;;
83728;SDS011;73707;56.480;-2.840;2024-03-08T11:22:27;23.92;;;9.85;;
83728;SDS011;73707;56.480;-2.840;2024-03-08T11:25:39;11.75;;;8.20;;
83728;SDS011;73707;56.480;-2.840;2024-03-08T11:30:45;13.63;;;8.55;;
83728;SDS011;73707;56.480;-2.840;2024-03-08T11:33:34;17.70;;;8.85;;
83728;SDS011;73707;56.480;-2.840;2024-03-08T11:38:45;16.15;;;9.95;;
83728;SDS011;73707;56.480;-2.840;2024-03-08T11:41:14;17.10;;;9.15;;
83728;SDS011;73707;56.480;-2.840;2024-03-08T11:43:44;18.80;;;9.93;;
83728;SDS011;73707;56.480;-2.840;2024-03-08T11:46:11;14.90;;;8.63;;
83728;SDS011;73707;56.480;-2.840;2024-03-08T11:48:38;16.67;;;9.10;;
83728;SDS011;73707;56.480;-2.840;2024-03-08T11:51:07;21.73;;;11.32;;
83728;SDS011;73707;56.480;-2.840;2024-03-08T11:53:37;15.52;;;9.18;;
83728;SDS011;73707;56.480;-2.840;2024-03-08T11:56:07;12.27;;;8.63;;
83728;SDS011;73707;56.480;-2.840;2024-03-08T11:58:34;16.30;;;9.15;;
83728;SDS011;73707;56.480;-2.840;2024-03-08T12:01:05;20.67;;;10.37;;
83728;SDS011;73707;56.480;-2.840;2024-03-08T12:03:37;17.30;;;8.57;;
83728;SDS011;73707;56.480;-2.840;2024-03-08T12:06:10;21.90;;;9.93;;
83728;SDS011;73707;56.480;-2.840;2024-03-08T12:08:36;18.58;;;9.32;;
83728;SDS011;73707;56.480;-2.840;2024-03-08T12:11:03;15.23;;;8.75;;
83728;SDS011;73707;56.480;-2.840;2024-03-08T12:13:30;15.07;;;8.97;;
83728;SDS011;73707;56.480;-2.840;2024-03-08T12:15:57;13.30;;;8.45;;
83728;SDS011;73707;56.480;-2.840;2024-03-08T12:18:24;18.65;;;8.95;;
83728;SDS011;73707;56.480;-2.840;2024-03-08T12:21:09;15.47;;;8.53;;
83728;SDS011;73707;56.480;-2.840;2024-03-08T12:23:36;16.58;;;8.15;;
83728;SDS011;73707;56.480;-2.840;2024-03-08T12:26:12;13.90;;;8.05;;
83728;SDS011;73707;56.480;-2.840;2024-03-08T12:28:42;12.18;;;8.40;;
83728;SDS011;73707;56.480;-2.840;2024-03-08T12:31:13;19.90;;;9.83;;
83728;SDS011;73707;56.480;-2.840;2024-03-08T12:36:17;18.17;;;9.90;;
83728;SDS011;73707;56.480;-2.840;2024-03-08T12:38:45;12.68;;;8.23;;
83728;SDS011;73707;56.480;-2.840;2024-03-08T12:41:14;17.30;;;9.18;;
83728;SDS011;73707;56.480;-2.840;2024-03-08T12:43:47;18.95;;;10.48;;
83728;SDS011;73707;56.480;-2.840;2024-03-08T12:46:19;15.90;;;9.95;;
83728;SDS011;73707;56.480;-2.840;2024-03-08T12:48:48;16.55;;;8.35;;
83728;SDS011;73707;56.480;-2.840;2024-03-08T12:51:14;16.63;;;10.00;;
83728;SDS011;73707;56.480;-2.840;2024-03-08T12:53:41;19.48;;;9.60;;
83728;SDS011;73707;56.480;-2.840;2024-03-08T12:56:10;14.23;;;9.15;;
83728;SDS011;73707;56.480;-2.840;2024-03-08T12:58:44;16.42;;;9.50;;
83728;SDS011;73707;56.480;-2.840;2024-03-08T13:01:10;17.97;;;10.07;;
83728;SDS011;73707;56.480;-2.840;2024-03-08T13:03:37;14.95;;;8.35;;
83728;SDS011;73707;56.480;-2.840;2024-03-08T13:06:03;16.52;;;8.20;;
83728;SDS011;73707;56.480;-2.840;2024-03-08T13:08:33;12.85;;;9.13;;
83728;SDS011;73707;56.480;-2.840;2024-03-08T13:11:01;15.77;;;9.83;;
83728;SDS011;73707;56.480;-2.840;2024-03-08T13:13:28;18.08;;;9.23;;
83728;SDS011;73707;56.480;-2.840;2024-03-08T13:15:54;15.23;;;10.27;;
83728;SDS011;73707;56.480;-2.840;2024-03-08T13:18:21;15.00;;;9.25;;
83728;SDS011;73707;56.480;-2.840;2024-03-08T13:20:48;25.90;;;10.75;;
83728;SDS011;73707;56.480;-2.840;2024-03-08T13:23:17;14.13;;;9.67;;
83728;SDS011;73707;56.480;-2.840;2024-03-08T13:25:43;16.93;;;9.67;;
83728;SDS011;73707;56.480;-2.840;2024-03-08T13:28:09;16.63;;;9.93;;
83728;SDS011;73707;56.480;-2.840;2024-03-08T13:30:36;16.40;;;10.13;;
83728;SDS011;73707;56.480;-2.840;2024-03-08T13:33:01;22.63;;;10.47;;
83728;SDS011;73707;56.480;-2.840;2024-03-08T13:35:29;17.90;;;11.23;;
83728;SDS011;73707;56.480;-2.840;2024-03-08T13:37:59;21.63;;;11.63;;
83728;SDS011;73707;56.480;-2.840;2024-03-08T13:40:28;20.23;;;11.95;;
83728;SDS011;73707;56.480;-2.840;2024-03-08T13:42:53;23.33;;;13.05;;
83728;SDS011;73707;56.480;-2.840;2024-03-08T13:45:19;24.67;;;13.03;;
83728;SDS011;73707;56.480;-2.840;2024-03-08T13:47:49;21.92;;;12.35;;
83728;SDS011;73707;56.480;-2.840;2024-03-08T13:50:18;27.25;;;12.73;;
83728;SDS011;73707;56.480;-2.840;2024-03-08T13:52:49;18.58;;;12.38;;
83728;SDS011;73707;56.480;-2.840;2024-03-08T13:55:19;17.88;;;12.00;;
83728;SDS011;73707;56.480;-2.840;2024-03-08T13:57:48;16.70;;;11.85;;
83728;SDS011;73707;56.480;-2.840;2024-03-08T14:00:16;18.20;;;11.05;;
83728;SDS011;73707;56.480;-2.840;2024-03-08T14:02:42;14.90;;;10.90;;
83728;SDS011;73707;56.480;-2.840;2024-03-08T14:05:08;21.38;;;11.73;;
83728;SDS011;73707;56.480;-2.840;2024-03-08T14:07:34;21.13;;;13.57;;
83728;SDS011;73707;56.480;-2.840;2024-03-08T14:10:00;18.48;;;12.23;;
83728;SDS011;73707;56.480;-2.840;2024-03-08T14:12:26;20.73;;;13.13;;
83728;SDS011;73707;56.480;-2.840;2024-03-08T14:14:52;18.95;;;12.05;;
83728;SDS011;73707;56.480;-2.840;2024-03-08T14:17:18;20.02;;;12.30;;
83728;SDS011;73707;56.480;-2.840;2024-03-08T14:19:45;21.73;;;13.18;;
83728;SDS011;73707;56.480;-2.840;2024-03-08T14:22:10;21.10;;;11.63;;
83728;SDS011;73707;56.480;-2.840;2024-03-08T14:24:39;16.35;;;11.45;;
83728;SDS011;73707;56.480;-2.840;2024-03-08T14:27:09;15.07;;;10.45;;
83728;SDS011;73707;56.480;-2.840;2024-03-08T14:29:37;18.25;;;11.20;;
83728;SDS011;73707;56.480;-2.840;2024-03-08T14:32:04;18.85;;;10.90;;
83728;SDS011;73707;56.480;-2.840;2024-03-08T14:34:31;22.92;;;11.68;;
83728;SDS011;73707;56.480;-2.840;2024-03-08T14:36:59;20.73;;;11.97;;
83728;SDS011;73707;56.480;-2.840;2024-03-08T14:39:25;18.48;;;12.00;;
83728;SDS011;73707;56.480;-2.840;2024-03-08T14:41:54;20.23;;;11.63;;
83728;SDS011;73707;56.480;-2.840;2024-03-08T14:44:23;16.92;;;11.70;;